createdAt,value
2023-01-28T00:05:36.925Z,1027.84
2023-01-28T00:15:42.048Z,1027.89
2023-01-28T00:25:47.212Z,1027.93
2023-01-28T00:35:52.908Z,1028.00
2023-01-28T00:45:58.405Z,1028.03
2023-01-28T00:56:03.555Z,1028.13
2023-01-28T01:06:08.440Z,1028.19
2023-01-28T01:16:13.527Z,1028.15
2023-01-28T01:26:19.030Z,1028.18
2023-01-28T01:36:24.409Z,1028.12
2023-01-28T01:46:29.624Z,1028.13
2023-01-28T01:56:34.892Z,1028.36
2023-01-28T02:06:40.110Z,1028.31
2023-01-28T02:16:45.575Z,1028.36
2023-01-28T02:26:51.366Z,1028.22
2023-01-28T02:36:56.697Z,1028.35
2023-01-28T02:47:02.144Z,1028.39
2023-01-28T02:57:07.288Z,1028.34
2023-01-28T03:07:12.520Z,1028.40
2023-01-28T03:17:17.666Z,1028.48
2023-01-28T03:27:22.839Z,1028.44
2023-01-28T03:37:27.927Z,1028.39
2023-01-28T03:47:33.372Z,1028.35
2023-01-28T03:57:38.858Z,1028.33
2023-01-28T04:07:44.054Z,1028.40
2023-01-28T04:17:49.589Z,1028.35
2023-01-28T04:27:54.669Z,1028.47
2023-01-28T04:38:00.390Z,1028.51
2023-01-28T04:48:05.493Z,1028.43
2023-01-28T04:58:11.060Z,1028.36
2023-01-28T05:08:16.360Z,1028.47
2023-01-28T05:18:21.715Z,1028.59
2023-01-28T05:28:26.924Z,1028.68
2023-01-28T05:38:32.122Z,1028.66
2023-01-28T05:48:37.458Z,1028.70
2023-01-28T05:58:42.716Z,1028.63
2023-01-28T06:08:48.033Z,1028.72
2023-01-28T06:18:53.447Z,1028.75
2023-01-28T06:28:58.768Z,1028.74
2023-01-28T06:39:03.891Z,1028.78
2023-01-28T06:49:09.758Z,1028.78
2023-01-28T06:59:15.263Z,1028.85
2023-01-28T07:09:20.634Z,1028.90
2023-01-28T07:19:25.833Z,1028.99
2023-01-28T07:29:31.333Z,1029.01
2023-01-28T07:39:36.863Z,1029.00
2023-01-28T07:49:42.413Z,1028.98
2023-01-28T07:59:48.093Z,1029.05
2023-01-28T08:09:53.386Z,1029.02
2023-01-28T08:19:58.655Z,1029.16
2023-01-28T08:30:04.162Z,1029.14
2023-01-28T08:40:09.521Z,1029.34
2023-01-28T08:50:15.132Z,1029.37
2023-01-28T09:00:20.640Z,1029.46
2023-01-28T09:10:26.160Z,1029.56
2023-01-28T09:20:31.377Z,1029.62
2023-01-28T09:30:38.014Z,1029.80
2023-01-28T09:40:43.466Z,1029.82
2023-01-28T09:50:48.743Z,1029.83
2023-01-28T10:00:54.237Z,1029.91
2023-01-28T10:10:59.748Z,1029.86
2023-01-28T10:21:04.729Z,1029.81
2023-01-28T10:31:10.004Z,1029.77
2023-01-28T10:41:15.422Z,1029.73
2023-01-28T10:51:21.081Z,1029.63
2023-01-28T11:01:26.321Z,1029.69
2023-01-28T11:11:31.604Z,1029.64
2023-01-28T11:21:37.183Z,1029.67
2023-01-28T11:31:42.605Z,1029.55
2023-01-28T11:41:47.490Z,1029.43
2023-01-28T11:51:52.911Z,1029.42
2023-01-28T12:01:58.253Z,1029.20
2023-01-28T12:12:05.002Z,1029.27
2023-01-28T12:22:10.407Z,1029.16
2023-01-28T12:32:15.680Z,1029.22
2023-01-28T12:42:21.712Z,1029.14
2023-01-28T12:52:26.812Z,1029.06
2023-01-28T13:02:32.427Z,1029.07
2023-01-28T13:12:37.746Z,1028.92
2023-01-28T13:22:42.974Z,1028.72
2023-01-28T13:32:48.343Z,1028.66
2023-01-28T13:42:53.565Z,1028.66
2023-01-28T13:52:59.134Z,1028.58
2023-01-28T14:03:04.471Z,1028.70
2023-01-28T14:13:09.900Z,1028.56
2023-01-28T14:23:14.794Z,1028.50
2023-01-28T14:33:20.058Z,1028.30
2023-01-28T14:43:25.405Z,1028.50
2023-01-28T14:53:30.625Z,1028.64
2023-01-28T15:03:36.180Z,1028.61
2023-01-28T15:13:41.234Z,1028.63
2023-01-28T15:23:46.334Z,1028.60
2023-01-28T15:33:52.021Z,1028.55
2023-01-28T15:43:57.114Z,1028.69
2023-01-28T15:54:02.085Z,1028.75
2023-01-28T16:04:07.259Z,1028.84
2023-01-28T16:14:12.333Z,1028.93
2023-01-28T16:24:17.976Z,1028.87
2023-01-28T16:34:23.106Z,1028.63
2023-01-28T16:44:28.612Z,1028.68
2023-01-28T16:54:33.426Z,1028.92
2023-01-28T17:04:38.894Z,1028.92
2023-01-28T17:14:44.131Z,1029.24
2023-01-28T17:24:49.374Z,1029.34
2023-01-28T17:34:54.911Z,1029.49
2023-01-28T17:45:00.488Z,1029.51
2023-01-28T17:55:06.062Z,1029.39
2023-01-28T18:05:11.780Z,1029.37
2023-01-28T18:15:17.480Z,1029.41
2023-01-28T18:25:23.295Z,1029.35
2023-01-28T18:35:28.954Z,1029.24
2023-01-28T18:45:34.820Z,1029.28
2023-01-28T18:55:40.370Z,1029.28
2023-01-28T19:05:45.773Z,1029.52
2023-01-28T19:15:51.091Z,1029.32
2023-01-28T19:25:56.603Z,1029.39
2023-01-28T19:36:03.475Z,1029.19
2023-01-28T19:46:09.310Z,1029.30
2023-01-28T19:56:14.608Z,1029.36
2023-01-28T20:06:21.517Z,1029.47
2023-01-28T20:16:27.095Z,1029.70
2023-01-28T20:26:32.347Z,1029.64
2023-01-28T20:36:38.151Z,1029.41
2023-01-28T20:46:43.825Z,1029.43
2023-01-28T20:56:49.361Z,1029.41
2023-01-28T21:06:54.299Z,1029.33
2023-01-28T21:16:59.872Z,1029.37
2023-01-28T21:27:05.160Z,1029.20
2023-01-28T21:37:10.299Z,1029.18
2023-01-28T21:47:15.691Z,1029.16
2023-01-28T21:57:21.212Z,1029.20
2023-01-28T22:07:26.522Z,1029.12
2023-01-28T22:17:31.649Z,1029.12
2023-01-28T22:27:36.862Z,1028.96
2023-01-28T22:37:41.994Z,1028.89
2023-01-28T22:47:47.675Z,1028.97
2023-01-28T22:57:53.206Z,1028.81
2023-01-28T23:07:58.420Z,1028.82
2023-01-28T23:18:05.446Z,1028.74
2023-01-28T23:28:10.764Z,1028.59
2023-01-28T23:38:15.715Z,1028.50
2023-01-28T23:48:20.945Z,1028.38
2023-01-28T23:58:42.174Z,1028.29
